createdAt,value
2017-04-17T00:00:52.102Z,8.20
2017-04-17T00:01:51.979Z,8.10
2017-04-17T00:02:51.119Z,8.00
2017-04-17T00:03:50.402Z,7.90
2017-04-17T00:04:49.566Z,7.80
2017-04-17T00:05:48.754Z,7.70
2017-04-17T00:06:47.911Z,7.60
2017-04-17T00:07:47.453Z,7.60
2017-04-17T00:08:46.610Z,7.50
2017-04-17T00:09:45.782Z,7.50
2017-04-17T00:10:44.979Z,7.40
2017-04-17T00:11:44.181Z,7.50
2017-04-17T00:12:43.342Z,7.50
2017-04-17T00:13:42.506Z,7.50
2017-04-17T00:14:41.678Z,7.50
2017-04-17T00:15:40.893Z,7.60
2017-04-17T00:16:40.062Z,7.50
2017-04-17T00:17:39.211Z,7.40
2017-04-17T00:18:39.126Z,7.30
2017-04-17T00:19:39.057Z,7.30
2017-04-17T00:20:38.260Z,7.30
2017-04-17T00:21:37.474Z,7.30
2017-04-17T00:22:36.641Z,7.30
2017-04-17T00:23:35.807Z,7.30
2017-04-17T00:24:34.977Z,7.30
2017-04-17T00:25:35.005Z,7.30
2017-04-17T00:26:34.125Z,7.30
2017-04-17T00:27:33.290Z,7.30
2017-04-17T00:28:32.411Z,7.30
2017-04-17T00:29:31.538Z,7.30
2017-04-17T00:30:30.699Z,7.20
2017-04-17T00:31:30.569Z,7.10
2017-04-17T00:32:29.691Z,7.20
2017-04-17T00:33:29.990Z,7.20
2017-04-17T00:35:28.554Z,7.20
2017-04-17T00:36:27.694Z,7.10
2017-04-17T00:37:26.818Z,7.20
2017-04-17T00:38:25.942Z,7.20
2017-04-17T00:39:25.120Z,7.20
2017-04-17T00:40:24.246Z,7.20
2017-04-17T00:41:23.367Z,7.20
2017-04-17T00:42:22.486Z,7.30
2017-04-17T00:43:21.607Z,7.30
2017-04-17T00:44:20.734Z,7.30
2017-04-17T00:45:19.890Z,7.30
2017-04-17T00:46:19.010Z,7.30
2017-04-17T00:47:18.143Z,7.30
2017-04-17T00:48:17.273Z,7.30
2017-04-17T00:49:16.427Z,7.20
2017-04-17T00:50:15.585Z,7.20
2017-04-17T00:51:15.486Z,7.10
2017-04-17T00:52:15.382Z,7.00
2017-04-17T00:53:14.521Z,7.20
2017-04-17T00:54:13.706Z,7.20
2017-04-17T00:55:12.842Z,7.20
2017-04-17T00:56:11.977Z,7.20
2017-04-17T00:57:11.172Z,7.20
2017-04-17T00:58:10.319Z,7.20
2017-04-17T00:59:10.194Z,7.20
2017-04-17T01:00:09.358Z,7.30
2017-04-17T01:01:08.505Z,7.40
2017-04-17T01:02:07.634Z,7.40
2017-04-17T01:03:06.823Z,7.40
2017-04-17T01:04:05.983Z,7.50
2017-04-17T01:05:05.195Z,7.60
2017-04-17T01:06:04.359Z,7.50
2017-04-17T01:07:03.489Z,7.50
2017-04-17T01:08:02.629Z,7.50
2017-04-17T01:09:01.766Z,7.40
2017-04-17T01:10:00.882Z,7.40
2017-04-17T01:11:00.817Z,7.30
2017-04-17T01:11:59.945Z,7.30
2017-04-17T01:12:59.075Z,7.30
2017-04-17T01:13:58.211Z,7.30
2017-04-17T01:14:57.334Z,7.30
2017-04-17T01:15:56.483Z,7.20
2017-04-17T01:16:55.785Z,7.20
2017-04-17T01:17:54.936Z,7.20
2017-04-17T01:18:54.075Z,7.20
2017-04-17T01:19:53.947Z,7.10
2017-04-17T01:20:53.082Z,7.20
2017-04-17T01:21:52.219Z,7.20
2017-04-17T01:22:51.382Z,7.30
2017-04-17T01:23:50.518Z,7.20
2017-04-17T01:24:49.643Z,7.20
2017-04-17T01:25:48.861Z,7.30
2017-04-17T01:26:48.022Z,7.30
2017-04-17T01:27:47.210Z,7.20
2017-04-17T01:28:46.654Z,7.10
2017-04-17T01:29:45.810Z,7.10
2017-04-17T01:30:45.008Z,7.10
2017-04-17T01:31:44.158Z,7.00
2017-04-17T01:32:43.359Z,7.10
2017-04-17T01:33:42.528Z,7.00
2017-04-17T01:34:41.723Z,6.90
2017-04-17T01:35:40.873Z,6.90
2017-04-17T01:36:40.070Z,6.90
2017-04-17T01:37:39.970Z,6.90
2017-04-17T01:38:39.246Z,7.00
2017-04-17T01:39:38.409Z,7.00
2017-04-17T01:40:37.603Z,7.00
2017-04-17T01:41:36.765Z,7.00
2017-04-17T01:42:35.923Z,6.90
2017-04-17T01:43:35.082Z,7.00
2017-04-17T01:44:34.250Z,7.00
2017-04-17T01:45:33.414Z,7.10
2017-04-17T01:46:32.662Z,7.10
2017-04-17T01:47:31.809Z,7.10
2017-04-17T01:48:31.016Z,7.10
2017-04-17T01:49:30.174Z,7.10
2017-04-17T01:50:29.366Z,7.20
2017-04-17T01:51:28.530Z,7.20
2017-04-17T01:52:27.687Z,7.20
2017-04-17T01:53:27.595Z,7.10
2017-04-17T01:54:27.540Z,7.00
2017-04-17T01:55:26.702Z,7.10
2017-04-17T01:56:25.898Z,7.00
2017-04-17T01:57:25.008Z,7.00
2017-04-17T01:58:24.120Z,7.00
2017-04-17T01:59:23.232Z,7.00
2017-04-17T02:00:22.358Z,7.10
2017-04-17T02:01:21.499Z,7.10
2017-04-17T02:02:20.637Z,7.10
2017-04-17T02:03:19.819Z,7.20
2017-04-17T02:04:18.986Z,7.20
2017-04-17T02:05:18.101Z,7.30
2017-04-17T02:06:17.224Z,7.20
2017-04-17T02:07:16.350Z,7.20
2017-04-17T02:08:15.556Z,7.20
2017-04-17T02:09:14.929Z,7.20
2017-04-17T02:10:14.043Z,7.20
2017-04-17T02:11:13.152Z,7.10
2017-04-17T02:12:12.261Z,7.10
2017-04-17T02:13:12.208Z,7.10
2017-04-17T02:14:11.395Z,7.20
2017-04-17T02:15:10.504Z,7.20
2017-04-17T02:16:09.608Z,7.20
2017-04-17T02:17:08.708Z,7.30
2017-04-17T02:18:07.812Z,7.30
2017-04-17T02:19:07.668Z,7.20
2017-04-17T02:20:06.814Z,7.40
2017-04-17T02:21:05.936Z,7.40
2017-04-17T02:22:05.037Z,7.40
2017-04-17T02:23:04.173Z,7.40
2017-04-17T02:24:03.285Z,7.40
2017-04-17T02:25:02.396Z,7.50
2017-04-17T02:26:01.545Z,7.50
2017-04-17T02:27:00.656Z,7.50
2017-04-17T02:27:59.765Z,7.50
2017-04-17T02:28:58.888Z,7.50
2017-04-17T02:29:57.986Z,7.50
2017-04-17T02:30:57.105Z,7.60
2017-04-17T02:31:56.712Z,7.50
2017-04-17T02:32:55.812Z,7.60
2017-04-17T02:33:54.916Z,7.60
2017-04-17T02:34:54.776Z,7.50
2017-04-17T02:35:53.873Z,7.60
2017-04-17T02:36:52.972Z,7.60
2017-04-17T02:37:52.112Z,7.60
2017-04-17T02:38:51.249Z,7.60
2017-04-17T02:39:50.389Z,7.70
2017-04-17T02:40:49.500Z,7.70
2017-04-17T02:41:48.652Z,7.70
2017-04-17T02:42:47.754Z,7.70
2017-04-17T02:43:46.897Z,7.70
2017-04-17T02:44:46.745Z,7.60
2017-04-17T02:45:45.853Z,7.70
2017-04-17T02:46:44.968Z,7.80
2017-04-17T02:47:44.818Z,7.70
2017-04-17T02:48:43.925Z,7.80
2017-04-17T02:49:43.052Z,7.80
2017-04-17T02:50:42.887Z,7.70
2017-04-17T02:51:42.005Z,7.80
2017-04-17T02:52:41.104Z,7.80
2017-04-17T02:53:40.221Z,7.80
2017-04-17T02:54:39.329Z,7.80
2017-04-17T02:55:38.477Z,7.90
2017-04-17T02:56:38.322Z,7.80
2017-04-17T02:57:37.428Z,7.90
2017-04-17T02:58:36.601Z,7.90
2017-04-17T02:59:35.713Z,7.90
2017-04-17T03:00:34.826Z,7.90
2017-04-17T03:01:34.708Z,7.80
2017-04-17T03:02:33.818Z,7.90
2017-04-17T03:03:33.673Z,7.80
2017-04-17T03:04:33.548Z,7.90
2017-04-17T03:05:32.656Z,7.90
2017-04-17T03:06:31.773Z,7.90
2017-04-17T03:07:31.071Z,7.90
2017-04-17T03:08:30.172Z,7.80
2017-04-17T03:09:30.019Z,7.70
2017-04-17T03:10:29.137Z,7.80
2017-04-17T03:11:28.260Z,7.80
2017-04-17T03:12:27.381Z,7.90
2017-04-17T03:13:26.524Z,7.90
2017-04-17T03:14:26.396Z,7.80
2017-04-17T03:15:25.512Z,7.90
2017-04-17T03:16:25.359Z,7.80
2017-04-17T03:17:24.467Z,7.90
2017-04-17T03:18:23.576Z,7.90
2017-04-17T03:19:22.946Z,7.90
2017-04-17T03:20:22.044Z,7.90
2017-04-17T03:21:21.151Z,7.90
2017-04-17T03:22:20.993Z,7.80
2017-04-17T03:23:20.128Z,7.90
2017-04-17T03:24:19.272Z,7.80
2017-04-17T03:25:18.428Z,7.90
2017-04-17T03:26:17.540Z,7.90
2017-04-17T03:27:16.656Z,7.80
2017-04-17T03:28:15.790Z,7.90
2017-04-17T03:29:14.896Z,7.90
2017-04-17T03:30:14.004Z,7.90
2017-04-17T03:31:13.924Z,7.80
2017-04-17T03:32:13.125Z,7.90
2017-04-17T03:33:12.290Z,7.90
2017-04-17T03:34:11.528Z,7.90
2017-04-17T03:35:10.720Z,7.80
2017-04-17T03:36:09.896Z,7.90
2017-04-17T03:37:09.109Z,7.90
2017-04-17T03:38:08.285Z,7.90
2017-04-17T03:39:07.451Z,7.80
2017-04-17T03:40:07.352Z,7.70
2017-04-17T03:41:06.509Z,7.80
2017-04-17T03:42:05.680Z,7.70
2017-04-17T03:43:04.904Z,7.70
2017-04-17T03:44:04.074Z,7.70
2017-04-17T03:45:03.228Z,7.60
2017-04-17T03:46:02.397Z,7.60
2017-04-17T03:47:01.550Z,7.50
2017-04-17T03:48:00.725Z,7.40
2017-04-17T03:49:01.648Z,7.40
2017-04-17T03:50:00.806Z,7.40
2017-04-17T03:50:59.985Z,7.30
2017-04-17T03:51:59.150Z,7.30
2017-04-17T03:52:59.057Z,7.20
2017-04-17T03:53:58.229Z,7.30
2017-04-17T03:54:58.181Z,7.20
2017-04-17T03:55:57.350Z,7.20
2017-04-17T03:56:56.517Z,7.30
2017-04-17T03:57:55.692Z,7.20
2017-04-17T03:58:55.024Z,7.20
2017-04-17T03:59:54.195Z,7.20
2017-04-17T04:00:53.401Z,7.20
2017-04-17T04:01:52.565Z,7.20
2017-04-17T04:02:52.469Z,7.10
2017-04-17T04:03:52.372Z,7.10
2017-04-17T04:04:52.301Z,7.10
2017-04-17T04:05:51.485Z,7.10
2017-04-17T04:06:50.775Z,7.10
2017-04-17T04:07:49.945Z,7.10
2017-04-17T04:08:49.109Z,7.10
2017-04-17T04:09:48.281Z,7.00
2017-04-17T04:10:47.461Z,7.00
2017-04-17T04:11:46.656Z,7.00
2017-04-17T04:12:46.045Z,7.00
2017-04-17T04:13:45.210Z,7.10
2017-04-17T04:14:44.373Z,7.10
2017-04-17T04:15:43.541Z,7.10
2017-04-17T04:16:43.446Z,7.00
2017-04-17T04:17:43.354Z,7.10
2017-04-17T04:18:43.314Z,7.00
2017-04-17T04:19:42.473Z,7.10
2017-04-17T04:20:41.649Z,7.10
2017-04-17T04:21:40.812Z,7.10
2017-04-17T04:22:39.977Z,7.10
2017-04-17T04:23:39.154Z,7.10
2017-04-17T04:24:38.364Z,7.10
2017-04-17T04:25:37.541Z,7.10
2017-04-17T04:26:36.709Z,7.10
2017-04-17T04:27:35.864Z,7.10
2017-04-17T04:28:35.032Z,7.10
2017-04-17T04:29:34.936Z,7.10
2017-04-17T04:30:35.017Z,7.00
2017-04-17T04:31:34.180Z,7.00
2017-04-17T04:32:33.560Z,7.00
2017-04-17T04:33:32.730Z,7.10
2017-04-17T04:34:31.897Z,7.10
2017-04-17T04:35:31.808Z,7.00
2017-04-17T04:36:31.761Z,6.90
2017-04-17T04:37:30.924Z,7.00
2017-04-17T04:38:30.121Z,7.00
2017-04-17T04:39:29.288Z,7.00
2017-04-17T04:40:28.472Z,7.00
2017-04-17T04:41:27.639Z,6.90
2017-04-17T04:42:27.828Z,6.80
2017-04-17T04:43:27.031Z,6.70
2017-04-17T04:44:26.361Z,6.50
2017-04-17T04:45:25.538Z,6.50
2017-04-17T04:46:24.703Z,6.50
2017-04-17T04:47:23.877Z,6.50
2017-04-17T04:48:23.079Z,6.50
2017-04-17T04:49:22.985Z,6.40
2017-04-17T04:50:22.140Z,6.50
2017-04-17T04:51:21.314Z,6.60
2017-04-17T04:52:20.476Z,6.60
2017-04-17T04:53:19.665Z,6.60
2017-04-17T04:54:18.877Z,6.50
2017-04-17T04:55:18.045Z,6.60
2017-04-17T04:56:17.285Z,6.50
2017-04-17T04:57:16.444Z,6.50
2017-04-17T04:58:15.623Z,6.50
2017-04-17T04:59:14.790Z,6.50
2017-04-17T05:00:14.133Z,6.50
2017-04-17T05:01:13.300Z,6.50
2017-04-17T05:02:12.510Z,6.50
2017-04-17T05:03:11.669Z,6.50
2017-04-17T05:04:10.828Z,6.50
2017-04-17T05:05:09.991Z,6.60
2017-04-17T05:06:09.358Z,6.60
2017-04-17T05:07:08.531Z,6.60
2017-04-17T05:08:07.692Z,6.60
2017-04-17T05:09:06.857Z,6.60
2017-04-17T05:10:06.774Z,6.40
2017-04-17T05:11:05.936Z,6.50
2017-04-17T05:12:05.306Z,6.40
2017-04-17T05:13:04.472Z,6.30
2017-04-17T05:14:03.637Z,6.20
2017-04-17T05:15:02.808Z,6.10
2017-04-17T05:16:01.974Z,6.00
2017-04-17T05:17:01.141Z,6.00
2017-04-17T05:18:00.348Z,6.00
2017-04-17T05:18:59.516Z,6.00
2017-04-17T05:19:58.685Z,6.00
2017-04-17T05:20:57.900Z,6.00
2017-04-17T05:21:57.103Z,6.00
2017-04-17T05:22:56.272Z,5.90
2017-04-17T05:23:55.432Z,5.90
2017-04-17T05:24:54.600Z,5.90
2017-04-17T05:25:53.760Z,5.80
2017-04-17T05:26:53.704Z,5.70
2017-04-17T05:27:52.870Z,5.70
2017-04-17T05:28:52.057Z,5.70
2017-04-17T05:29:51.670Z,5.70
2017-04-17T05:30:50.835Z,5.80
2017-04-17T05:31:50.001Z,5.80
2017-04-17T05:32:49.374Z,5.80
2017-04-17T05:33:48.481Z,5.90
2017-04-17T05:34:47.584Z,5.90
2017-04-17T05:35:47.445Z,5.90
2017-04-17T05:36:46.552Z,6.00
2017-04-17T05:37:46.563Z,5.90
2017-04-17T05:38:45.708Z,6.00
2017-04-17T05:39:44.818Z,6.00
2017-04-17T05:40:43.932Z,6.00
2017-04-17T05:41:43.789Z,6.00
2017-04-17T05:42:43.317Z,6.00
2017-04-17T05:43:42.460Z,6.00
2017-04-17T05:44:41.781Z,6.00
2017-04-17T05:45:41.645Z,6.00
2017-04-17T05:46:40.773Z,6.00
2017-04-17T05:47:40.171Z,5.90
2017-04-17T05:48:39.615Z,5.90
2017-04-17T05:49:38.769Z,5.80
2017-04-17T05:50:39.500Z,5.60
2017-04-17T05:51:40.101Z,5.60
2017-04-17T05:52:39.218Z,5.70
2017-04-17T05:53:38.335Z,5.70
2017-04-17T05:54:37.453Z,5.70
2017-04-17T05:55:36.564Z,5.80
2017-04-17T05:56:36.465Z,5.80
2017-04-17T05:57:36.318Z,5.60
2017-04-17T05:58:35.468Z,5.70
2017-04-17T05:59:34.581Z,5.70
2017-04-17T06:00:33.692Z,5.60
2017-04-17T06:01:32.809Z,5.60
2017-04-17T06:02:32.124Z,5.70
2017-04-17T06:03:31.237Z,5.80
2017-04-17T06:04:30.352Z,5.90
2017-04-17T06:05:29.457Z,5.90
2017-04-17T06:06:28.573Z,6.00
2017-04-17T06:07:27.693Z,6.00
2017-04-17T06:08:26.833Z,6.00
2017-04-17T06:09:26.240Z,6.00
2017-04-17T06:10:25.361Z,6.10
2017-04-17T06:11:24.472Z,6.10
2017-04-17T06:12:23.576Z,6.10
2017-04-17T06:14:22.333Z,6.10
2017-04-17T06:15:21.440Z,6.10
2017-04-17T06:16:20.551Z,6.10
2017-04-17T06:17:19.656Z,5.90
2017-04-17T06:18:18.745Z,5.90
2017-04-17T06:19:17.901Z,5.90
2017-04-17T06:20:17.061Z,6.00
2017-04-17T06:21:16.160Z,6.10
2017-04-17T06:22:15.272Z,6.20
2017-04-17T06:23:14.369Z,6.30
2017-04-17T06:24:13.508Z,6.30
2017-04-17T06:25:12.684Z,6.30
2017-04-17T06:26:11.963Z,6.40
2017-04-17T06:27:11.207Z,6.40
2017-04-17T06:28:10.313Z,6.30
2017-04-17T06:29:09.429Z,6.20
2017-04-17T06:30:08.536Z,6.20
2017-04-17T06:31:07.645Z,6.30
2017-04-17T06:32:06.795Z,6.20
2017-04-17T06:33:05.908Z,6.20
2017-04-17T06:34:05.761Z,6.20
2017-04-17T06:35:04.880Z,6.30
2017-04-17T06:36:03.993Z,6.40
2017-04-17T06:37:03.100Z,6.40
2017-04-17T06:38:02.240Z,6.40
2017-04-17T06:39:01.355Z,6.40
2017-04-17T06:39:59.701Z,6.30
2017-04-17T06:40:59.564Z,6.30
2017-04-17T06:41:58.677Z,6.40
2017-04-17T06:42:57.949Z,6.40
2017-04-17T06:43:57.098Z,6.40
2017-04-17T06:44:56.217Z,6.40
2017-04-17T06:45:55.329Z,6.40
2017-04-17T06:46:54.440Z,6.30
2017-04-17T06:47:53.555Z,6.20
2017-04-17T06:48:53.389Z,6.20
2017-04-17T06:49:52.500Z,6.20
2017-04-17T06:50:52.359Z,6.10
2017-04-17T06:51:51.477Z,6.20
2017-04-17T06:52:50.580Z,6.20
2017-04-17T06:53:50.432Z,6.30
2017-04-17T06:54:49.741Z,6.40
2017-04-17T06:55:48.849Z,6.50
2017-04-17T06:56:47.992Z,6.60
2017-04-17T06:57:47.410Z,6.70
2017-04-17T06:58:46.529Z,6.80
2017-04-17T06:59:46.388Z,6.80
2017-04-17T07:00:45.552Z,7.00
2017-04-17T07:01:45.404Z,7.00
2017-04-17T07:02:47.452Z,7.10
2017-04-17T07:03:46.560Z,7.10
2017-04-17T07:04:45.665Z,7.20
2017-04-17T07:05:44.780Z,7.20
2017-04-17T07:06:44.097Z,7.30
2017-04-17T07:07:43.210Z,7.40
2017-04-17T07:08:43.064Z,7.40
2017-04-17T07:09:42.173Z,7.60
2017-04-17T07:10:41.725Z,7.70
2017-04-17T07:11:40.833Z,7.70
2017-04-17T07:12:39.985Z,7.80
2017-04-17T07:13:39.105Z,7.80
2017-04-17T07:14:38.261Z,7.90
2017-04-17T07:15:37.384Z,8.00
2017-04-17T07:16:36.501Z,8.10
2017-04-17T07:17:35.614Z,8.20
2017-04-17T07:18:34.756Z,8.20
2017-04-17T07:19:34.150Z,8.20
2017-04-17T07:20:33.292Z,8.20
2017-04-17T07:21:32.893Z,8.30
2017-04-17T07:22:32.005Z,8.40
2017-04-17T07:23:31.109Z,8.40
2017-04-17T07:24:30.259Z,8.50
2017-04-17T07:25:29.492Z,8.50
2017-04-17T07:26:28.648Z,8.60
2017-04-17T07:27:27.835Z,8.70
2017-04-17T07:28:27.023Z,8.70
2017-04-17T07:29:26.185Z,8.80
2017-04-17T07:30:25.414Z,8.90
2017-04-17T07:31:24.572Z,8.90
2017-04-17T07:32:23.741Z,9.00
2017-04-17T07:33:22.923Z,9.00
2017-04-17T07:34:22.088Z,9.00
2017-04-17T07:35:21.263Z,9.00
2017-04-17T07:36:21.228Z,8.90
2017-04-17T07:37:20.392Z,9.10
2017-04-17T07:38:19.551Z,9.10
2017-04-17T07:39:19.453Z,9.10
2017-04-17T07:40:18.628Z,9.20
2017-04-17T07:41:18.537Z,8.80
2017-04-17T07:42:18.484Z,8.70
2017-04-17T07:43:17.648Z,8.50
2017-04-17T07:44:16.826Z,8.30
2017-04-17T07:45:16.888Z,8.00
2017-04-17T07:46:16.181Z,7.80
2017-04-17T07:47:15.382Z,7.80
2017-04-17T07:48:14.576Z,7.90
2017-04-17T07:49:13.918Z,8.00
2017-04-17T07:50:13.097Z,8.10
2017-04-17T07:51:12.264Z,8.10
2017-04-17T07:52:11.441Z,8.10
2017-04-17T07:53:10.613Z,8.10
2017-04-17T07:54:09.854Z,8.00
2017-04-17T07:55:11.393Z,8.00
2017-04-17T07:56:10.625Z,8.20
2017-04-17T07:57:10.528Z,8.20
2017-04-17T07:58:10.440Z,8.30
2017-04-17T07:59:09.605Z,8.50
2017-04-17T08:00:08.779Z,8.60
2017-04-17T08:01:07.997Z,8.70
2017-04-17T08:02:07.165Z,8.80
2017-04-17T08:03:06.331Z,8.80
2017-04-17T08:04:05.484Z,8.90
2017-04-17T08:05:04.675Z,9.00
2017-04-17T08:06:03.873Z,9.10
2017-04-17T08:07:03.289Z,9.10
2017-04-17T08:08:02.460Z,9.10
2017-04-17T08:09:01.630Z,8.90
2017-04-17T08:10:00.796Z,8.70
2017-04-17T08:10:59.964Z,8.70
2017-04-17T08:11:59.867Z,8.40
2017-04-17T08:12:59.845Z,8.30
2017-04-17T08:13:59.014Z,8.40
2017-04-17T08:14:58.182Z,8.50
2017-04-17T08:15:57.377Z,8.60
2017-04-17T08:16:56.551Z,8.40
2017-04-17T08:17:55.728Z,8.40
2017-04-17T08:18:55.078Z,8.50
2017-04-17T08:19:54.268Z,8.50
2017-04-17T08:20:53.425Z,8.50
2017-04-17T08:21:52.597Z,8.50
2017-04-17T08:22:51.744Z,8.20
2017-04-17T08:23:51.644Z,7.90
2017-04-17T08:24:50.825Z,7.70
2017-04-17T08:25:49.977Z,7.70
2017-04-17T08:26:49.072Z,7.70
2017-04-17T08:27:48.161Z,7.70
2017-04-17T08:28:47.256Z,7.50
2017-04-17T08:29:46.354Z,7.30
2017-04-17T08:30:45.835Z,7.30
2017-04-17T08:31:44.927Z,7.30
2017-04-17T08:32:44.031Z,7.20
2017-04-17T08:33:43.128Z,7.00
2017-04-17T08:34:43.002Z,6.90
2017-04-17T08:35:42.108Z,7.00
2017-04-17T08:36:41.248Z,7.00
2017-04-17T08:37:40.354Z,7.00
2017-04-17T08:38:39.472Z,7.00
2017-04-17T08:39:38.591Z,6.90
2017-04-17T08:40:37.695Z,6.90
2017-04-17T08:41:36.805Z,7.00
2017-04-17T08:42:35.948Z,7.00
2017-04-17T08:43:35.065Z,7.00
2017-04-17T08:44:34.180Z,6.90
2017-04-17T08:45:33.281Z,7.00
2017-04-17T08:46:33.128Z,6.90
2017-04-17T08:47:32.284Z,7.10
2017-04-17T08:48:31.413Z,7.20
2017-04-17T08:49:30.516Z,7.20
2017-04-17T08:50:29.619Z,7.30
2017-04-17T08:51:28.786Z,7.50
2017-04-17T08:52:27.893Z,7.60
2017-04-17T08:53:27.000Z,7.60
2017-04-17T08:54:26.556Z,7.60
2017-04-17T08:55:25.693Z,7.40
2017-04-17T08:56:24.813Z,7.50
2017-04-17T08:57:23.940Z,7.60
2017-04-17T08:58:23.799Z,7.60
2017-04-17T08:59:23.576Z,7.70
2017-04-17T09:00:22.745Z,7.80
2017-04-17T09:01:21.861Z,7.90
2017-04-17T09:02:20.976Z,8.00
2017-04-17T09:03:20.091Z,8.10
2017-04-17T09:04:19.955Z,8.10
2017-04-17T09:05:19.070Z,8.30
2017-04-17T09:06:18.237Z,8.40
2017-04-17T09:07:17.353Z,8.50
2017-04-17T09:08:17.205Z,8.50
2017-04-17T09:09:16.320Z,8.60
2017-04-17T09:10:15.424Z,8.50
2017-04-17T09:11:14.536Z,8.30
2017-04-17T09:12:13.713Z,8.30
2017-04-17T09:13:13.585Z,8.00
2017-04-17T09:14:12.697Z,8.00
2017-04-17T09:15:12.552Z,7.90
2017-04-17T09:16:11.669Z,8.10
2017-04-17T09:17:10.780Z,8.20
2017-04-17T09:18:10.689Z,8.30
2017-04-17T09:19:09.805Z,8.50
2017-04-17T09:20:08.905Z,8.60
2017-04-17T09:21:08.004Z,8.70
2017-04-17T09:22:07.102Z,8.90
2017-04-17T09:23:06.215Z,9.10
2017-04-17T09:24:06.151Z,9.10
2017-04-17T09:25:05.247Z,9.30
2017-04-17T09:26:04.375Z,9.50
2017-04-17T09:27:03.467Z,9.50
2017-04-17T09:28:03.303Z,9.50
2017-04-17T09:29:02.404Z,9.70
2017-04-17T09:30:01.544Z,9.80
2017-04-17T09:31:01.384Z,9.80
2017-04-17T09:32:00.488Z,10.00
2017-04-17T09:32:59.597Z,9.90
2017-04-17T09:33:58.700Z,10.00
2017-04-17T09:34:58.585Z,10.00
2017-04-17T09:35:57.964Z,10.20
2017-04-17T09:36:57.064Z,10.30
2017-04-17T09:37:56.176Z,10.40
2017-04-17T09:38:56.015Z,10.20
2017-04-17T09:39:55.119Z,10.20
2017-04-17T09:40:54.223Z,10.20
2017-04-17T09:41:53.376Z,10.20
2017-04-17T09:42:52.502Z,10.20
2017-04-17T09:44:51.759Z,10.00
2017-04-17T09:45:50.864Z,9.80
2017-04-17T09:46:49.964Z,9.50
2017-04-17T09:47:49.346Z,9.60
2017-04-17T09:48:48.446Z,9.70
2017-04-17T09:49:47.560Z,9.60
2017-04-17T09:50:47.691Z,9.50
2017-04-17T09:51:46.804Z,9.70
2017-04-17T09:52:45.968Z,9.90
2017-04-17T09:53:45.105Z,10.20
2017-04-17T09:54:44.220Z,10.40
2017-04-17T09:55:43.400Z,10.40
2017-04-17T09:56:42.503Z,10.30
2017-04-17T09:57:41.612Z,10.10
2017-04-17T09:58:40.715Z,10.20
2017-04-17T09:59:39.894Z,10.40
2017-04-17T10:00:38.988Z,10.40
2017-04-17T10:01:38.092Z,10.30
2017-04-17T10:02:37.965Z,10.10
2017-04-17T10:03:37.126Z,10.10
2017-04-17T10:04:36.240Z,10.10
2017-04-17T10:05:35.736Z,10.20
2017-04-17T10:06:34.831Z,10.40
2017-04-17T10:07:33.947Z,10.50
2017-04-17T10:08:34.083Z,10.60
2017-04-17T10:09:33.228Z,10.60
2017-04-17T10:10:32.325Z,10.70
2017-04-17T10:11:31.451Z,10.80
2017-04-17T10:12:30.561Z,10.80
2017-04-17T10:13:29.690Z,10.60
2017-04-17T10:14:28.807Z,10.60
2017-04-17T10:15:27.933Z,10.70
2017-04-17T10:16:27.043Z,10.60
2017-04-17T10:17:26.180Z,10.60
2017-04-17T10:18:26.071Z,10.70
2017-04-17T10:19:25.214Z,10.70
2017-04-17T10:20:24.660Z,10.90
2017-04-17T10:21:23.764Z,11.00
2017-04-17T10:22:23.164Z,11.00
2017-04-17T10:23:23.291Z,11.20
2017-04-17T10:24:23.169Z,11.20
2017-04-17T10:25:23.055Z,11.40
2017-04-17T10:26:22.195Z,11.30
2017-04-17T10:27:21.288Z,11.10
2017-04-17T10:28:20.376Z,11.00
2017-04-17T10:29:19.477Z,11.00
2017-04-17T10:30:18.599Z,10.90
2017-04-17T10:31:17.709Z,10.70
2017-04-17T10:32:17.653Z,10.40
2017-04-17T10:33:16.744Z,10.30
2017-04-17T10:36:04.196Z,10.10
2017-04-17T10:37:03.287Z,9.80
2017-04-17T10:38:02.381Z,9.60
2017-04-17T10:39:01.480Z,9.70
2017-04-17T10:40:01.444Z,9.60
2017-04-17T10:41:00.551Z,9.40
2017-04-17T10:41:59.648Z,9.30
2017-04-17T10:42:58.742Z,9.20
2017-04-17T10:43:58.572Z,9.10
2017-04-17T10:44:57.659Z,9.20
2017-04-17T10:45:56.789Z,9.10
2017-04-17T10:46:56.035Z,9.10
2017-04-17T10:47:55.148Z,9.10
2017-04-17T10:48:54.252Z,9.10
2017-04-17T10:49:53.359Z,9.20
2017-04-17T10:50:52.465Z,9.20
2017-04-17T10:51:51.812Z,9.20
2017-04-17T10:52:50.912Z,9.20
2017-04-17T10:53:50.016Z,9.20
2017-04-17T10:54:49.861Z,9.20
2017-04-17T10:55:48.961Z,9.40
2017-04-17T10:56:48.063Z,9.60
2017-04-17T10:57:47.352Z,9.80
2017-04-17T10:58:46.457Z,9.90
2017-04-17T10:59:45.566Z,10.10
2017-04-17T11:00:44.695Z,10.30
2017-04-17T11:01:43.811Z,10.40
2017-04-17T11:02:42.930Z,10.40
2017-04-17T11:03:42.086Z,10.20
2017-04-17T11:04:41.204Z,10.10
2017-04-17T11:05:40.313Z,10.10
2017-04-17T11:06:39.449Z,10.20
2017-04-17T11:07:38.812Z,10.20
2017-04-17T11:08:37.988Z,10.10
2017-04-17T11:09:37.297Z,10.10
2017-04-17T11:10:36.533Z,10.10
2017-04-17T11:11:35.845Z,10.20
2017-04-17T11:12:35.170Z,10.20
2017-04-17T11:13:34.381Z,10.30
2017-04-17T11:14:34.010Z,10.20
2017-04-17T11:15:33.577Z,10.10
2017-04-17T11:16:33.680Z,9.90
2017-04-17T11:17:33.986Z,9.80
2017-04-17T11:18:33.262Z,9.90
2017-04-17T11:19:33.011Z,9.80
2017-04-17T11:20:32.885Z,9.70
2017-04-17T11:21:32.088Z,9.70
2017-04-17T11:22:32.805Z,9.60
2017-04-17T11:23:32.429Z,9.80
2017-04-17T11:24:31.603Z,9.90
2017-04-17T11:25:31.487Z,9.80
2017-04-17T11:26:31.393Z,9.90
2017-04-17T11:27:30.601Z,10.10
2017-04-17T11:29:30.508Z,10.20
2017-04-17T11:30:30.453Z,10.20
2017-04-17T11:31:29.652Z,10.30
2017-04-17T11:32:28.832Z,10.30
2017-04-17T11:33:28.305Z,10.30
2017-04-17T11:34:27.459Z,10.40
2017-04-17T11:35:26.607Z,10.40
2017-04-17T11:36:25.776Z,10.40
2017-04-17T11:37:24.940Z,10.30
2017-04-17T11:38:24.104Z,10.20
2017-04-17T11:39:23.357Z,10.10
2017-04-17T11:40:22.872Z,10.10
2017-04-17T11:41:22.057Z,10.20
2017-04-17T11:42:21.229Z,10.20
2017-04-17T11:43:20.379Z,10.20
2017-04-17T11:44:19.549Z,10.20
2017-04-17T11:45:19.247Z,10.30
2017-04-17T11:46:18.419Z,10.30
2017-04-17T11:47:17.591Z,10.30
2017-04-17T11:48:16.800Z,10.40
2017-04-17T11:49:15.955Z,10.50
2017-04-17T11:50:15.169Z,10.50
2017-04-17T11:51:14.384Z,10.50
2017-04-17T11:52:13.556Z,10.50
2017-04-17T11:53:12.713Z,10.60
2017-04-17T11:54:11.889Z,10.50
2017-04-17T11:55:11.060Z,10.50
2017-04-17T11:56:10.999Z,10.50
2017-04-17T11:57:10.199Z,10.60
2017-04-17T11:58:09.411Z,10.60
2017-04-17T11:59:08.620Z,10.70
2017-04-17T12:00:07.787Z,10.70
2017-04-17T12:01:06.972Z,10.70
2017-04-17T12:02:06.140Z,10.70
2017-04-17T12:03:05.321Z,10.70
2017-04-17T12:04:04.520Z,10.80
2017-04-17T12:05:03.748Z,10.80
2017-04-17T12:06:02.941Z,10.80
2017-04-17T12:07:02.109Z,10.70
2017-04-17T12:08:01.260Z,10.80
2017-04-17T12:09:00.365Z,10.90
2017-04-17T12:10:00.208Z,10.90
2017-04-17T12:10:59.340Z,11.00
2017-04-17T12:11:58.439Z,11.10
2017-04-17T12:12:57.549Z,11.10
2017-04-17T12:13:56.668Z,11.30
2017-04-17T12:14:55.778Z,11.20
2017-04-17T12:15:54.908Z,11.10
2017-04-17T12:16:54.065Z,10.90
2017-04-17T12:17:53.917Z,10.70
2017-04-17T12:18:53.025Z,10.60
2017-04-17T12:19:52.134Z,10.50
2017-04-17T12:20:51.238Z,10.40
2017-04-17T12:21:50.348Z,10.50
2017-04-17T12:22:49.510Z,10.50
2017-04-17T12:23:48.629Z,10.60
2017-04-17T12:24:47.733Z,10.50
2017-04-17T12:25:46.848Z,10.60
2017-04-17T12:26:45.952Z,10.60
2017-04-17T12:27:45.057Z,10.60
2017-04-17T12:28:44.217Z,10.60
2017-04-17T12:29:44.080Z,10.60
2017-04-17T12:30:43.241Z,10.80
2017-04-17T12:31:42.395Z,10.80
2017-04-17T12:32:42.300Z,10.80
2017-04-17T12:33:42.157Z,10.90
2017-04-17T12:34:41.304Z,11.00
2017-04-17T12:35:40.397Z,11.10
2017-04-17T12:36:39.499Z,11.20
2017-04-17T12:37:38.595Z,11.20
2017-04-17T12:38:37.700Z,11.30
2017-04-17T12:39:36.794Z,11.40
2017-04-17T12:40:36.003Z,11.50
2017-04-17T12:41:35.836Z,11.60
2017-04-17T12:42:34.931Z,11.80
2017-04-17T12:43:34.027Z,11.80
2017-04-17T12:44:33.148Z,11.80
2017-04-17T12:45:32.253Z,11.90
2017-04-17T12:46:32.156Z,11.70
2017-04-17T12:47:32.281Z,11.70
2017-04-17T12:48:31.384Z,11.80
2017-04-17T12:49:31.800Z,11.70
2017-04-17T12:50:30.917Z,11.80
2017-04-17T12:51:30.027Z,11.90
2017-04-17T12:52:29.185Z,11.80
2017-04-17T12:53:28.329Z,11.80
2017-04-17T12:54:27.450Z,11.80
2017-04-17T12:55:26.561Z,11.80
2017-04-17T12:57:25.833Z,11.50
2017-04-17T12:58:25.092Z,11.40
2017-04-17T12:59:24.336Z,11.30
2017-04-17T13:00:23.500Z,11.20
2017-04-17T13:01:22.663Z,11.10
2017-04-17T13:02:21.840Z,11.10
2017-04-17T13:03:21.008Z,11.10
2017-04-17T13:04:20.221Z,11.10
2017-04-17T13:05:19.385Z,11.20
2017-04-17T13:06:18.543Z,11.20
2017-04-17T13:07:17.749Z,11.10
2017-04-17T13:08:16.935Z,11.10
2017-04-17T13:09:16.097Z,11.20
2017-04-17T13:10:15.297Z,11.20